Time;durP1;ratioP1;P1;durP2;ratioP2;P2;SDS_P1;SDS_P2;PMS_P1;PMS_P2;Temp;Humidity;BMP_temperature;BMP_pressure;BME280_temperature;BME280_humidity;BME280_pressure;Samples;Min_cycle;Max_cycle;Signal;HPM_P1;HPM_P2
2023/03/10 00:02:18;;;;;;;1.00;0.90;;;;;;;10.73;100.00;98346.31;5110141;28;20247;-59
2023/03/10 00:04:49;;;;;;;1.23;0.93;;;;;;;10.71;100.00;98348.22;5109911;28;20254;-60
2023/03/10 00:07:16;;;;;;;0.50;0.50;;;;;;;10.76;100.00;98346.06;5109924;28;20736;-59
2023/03/10 00:09:44;;;;;;;0.70;0.70;;;;;;;10.68;100.00;98359.50;5109949;28;20204;-63
2023/03/10 00:12:11;;;;;;;0.50;0.50;;;;;;;10.65;100.00;98352.91;5110172;28;20231;-59
2023/03/10 00:14:38;;;;;;;0.80;0.70;;;;;;;10.69;100.00;98355.19;5109848;28;20193;-59
2023/03/10 00:17:06;;;;;;;0.80;0.63;;;;;;;10.75;100.00;98350.38;5109756;28;20217;-64
2023/03/10 00:19:33;;;;;;;0.80;0.70;;;;;;;10.74;100.00;98350.50;5109850;28;20212;-64
2023/03/10 00:22:01;;;;;;;0.50;0.50;;;;;;;10.75;100.00;98350.38;5109604;28;20197;-64
2023/03/10 00:24:28;;;;;;;0.60;0.60;;;;;;;10.75;100.00;98344.44;5109729;28;20208;-64
2023/03/10 00:26:56;;;;;;;0.40;0.40;;;;;;;10.73;100.00;98336.91;5109630;28;20200;-60
2023/03/10 00:29:23;;;;;;;1.07;0.80;;;;;;;10.61;100.00;98338.75;5110017;28;20266;-59
2023/03/10 00:31:51;;;;;;;1.27;0.80;;;;;;;10.56;100.00;98340.06;5109525;28;20201;-64
2023/03/10 00:34:18;;;;;;;0.50;0.50;;;;;;;10.49;100.00;98344.91;5109763;28;20209;-64
2023/03/10 00:36:45;;;;;;;0.57;0.57;;;;;;;10.41;100.00;98347.28;5109339;28;20233;-64
2023/03/10 00:39:12;;;;;;;0.50;0.50;;;;;;;10.36;100.00;98349.44;5109671;28;20215;-59
2023/03/10 00:41:39;;;;;;;1.00;0.63;;;;;;;10.36;100.00;98349.44;5109977;28;20201;-64
2023/03/10 00:44:09;;;;;;;0.60;0.50;;;;;;;10.29;100.00;98348.31;5109345;28;20217;-64
2023/03/10 00:46:37;;;;;;;0.33;0.33;;;;;;;10.29;100.00;98353.41;5109512;28;20201;-64
2023/03/10 00:49:04;;;;;;;1.13;0.50;;;;;;;10.34;100.00;98356.41;5109436;28;20213;-64
2023/03/10 00:51:31;;;;;;;0.40;0.40;;;;;;;10.23;100.00;98348.78;5109269;28;20205;-59
2023/03/10 00:53:59;;;;;;;1.70;0.93;;;;;;;10.14;100.00;98345.25;5112136;28;20213;-59
2023/03/10 00:56:27;;;;;;;0.50;0.50;;;;;;;10.10;100.00;98324.25;5113062;28;20233;-60
2023/03/10 00:58:56;;;;;;;0.80;0.60;;;;;;;10.04;100.00;98323.97;5113332;28;20613;-64
2023/03/10 01:01:25;;;;;;;0.60;0.50;;;;;;;10.13;100.00;98323.19;5113791;28;20193;-59
2023/03/10 01:03:54;;;;;;;0.60;0.60;;;;;;;10.09;100.00;98317.50;5113248;28;20217;-59
2023/03/10 01:06:21;;;;;;;1.07;0.90;;;;;;;10.08;100.00;98320.22;5113444;28;20205;-64
2023/03/10 01:08:49;;;;;;;0.73;0.70;;;;;;;10.05;100.00;98311.06;5113137;28;20221;-60
2023/03/10 01:11:17;;;;;;;0.50;0.50;;;;;;;10.10;100.00;98316.59;5113167;28;20576;-60
2023/03/10 01:13:44;;;;;;;1.07;0.70;;;;;;;10.10;100.00;98314.03;5112948;28;20228;-60
2023/03/10 01:16:11;;;;;;;0.50;0.50;;;;;;;10.05;100.00;98300.84;5113048;27;20240;-59
2023/03/10 01:18:40;;;;;;;0.77;0.67;;;;;;;10.02;100.00;98301.09;5112991;27;20228;-59
2023/03/10 01:21:07;;;;;;;0.60;0.50;;;;;;;10.04;100.00;98301.78;5112965;28;20224;-64
2023/03/10 01:23:34;;;;;;;0.53;0.53;;;;;;;10.05;100.00;98298.28;5112632;28;20721;-59
2023/03/10 01:26:01;;;;;;;1.73;0.77;;;;;;;10.04;100.00;98309.44;5112611;28;20208;-59
2023/03/10 01:28:27;;;;;;;0.67;0.67;;;;;;;10.09;100.00;98307.28;5112580;28;20210;-60
2023/03/10 01:30:54;;;;;;;0.80;0.63;;;;;;;10.07;100.00;98309.19;5112605;28;20200;-59
2023/03/10 01:33:21;;;;;;;0.50;0.50;;;;;;;10.07;100.00;98303.28;5112773;28;20221;-59
2023/03/10 01:35:49;;;;;;;1.13;0.90;;;;;;;10.09;100.00;98299.63;5112573;28;20327;-59
2023/03/10 01:38:16;;;;;;;0.80;0.67;;;;;;;10.10;100.00;98303.81;5112590;28;20225;-64
2023/03/10 01:40:49;;;;;;;0.40;0.40;;;;;;;10.13;100.00;98303.56;5112384;28;20193;-64
2023/03/10 01:43:31;;;;;;;0.43;0.43;;;;;;;10.08;100.00;98303.13;5112779;28;20217;-59
2023/03/10 01:46:39;;;;;;;0.43;0.43;;;;;;;10.08;100.00;98307.44;5110569;28;20197;-59
2023/03/10 01:49:14;;;;;;;1.40;0.90;;;;;;;10.01;100.00;98308.91;5112289;28;20629;-64
2023/03/10 01:51:46;;;;;;;0.90;0.70;;;;;;;9.96;100.00;98297.28;5112605;28;20205;-59
2023/03/10 01:54:17;;;;;;;2.47;0.60;;;;;;;9.92;100.00;98301.03;5112342;28;20193;-59
2023/03/10 01:56:45;;;;;;;2.27;0.60;;;;;;;9.91;100.00;98301.16;5112016;28;20240;-64
2023/03/10 01:59:13;;;;;;;0.90;0.40;;;;;;;9.92;100.00;98305.34;5112507;28;20197;-59
2023/03/10 02:01:40;;;;;;;0.70;0.43;;;;;;;9.83;100.00;98306.91;5112183;28;20208;-59
2023/03/10 02:04:11;;;;;;;0.70;0.53;;;;;;;9.87;100.00;98313.38;5111981;28;20217;-59
2023/03/10 02:06:41;;;;;;;0.97;0.80;;;;;;;9.75;100.00;98315.19;5111688;28;20205;-63
2023/03/10 02:09:09;;;;;;;1.27;0.43;;;;;;;9.80;100.00;98312.25;5111965;28;20237;-60
2023/03/10 02:11:38;;;;;;;0.30;0.27;;;;;;;9.72;100.00;98312.88;5112093;28;20269;-64
2023/03/10 02:14:05;;;;;;;0.77;0.50;;;;;;;9.71;100.00;98313.78;5111756;28;20224;-64
2023/03/10 02:16:33;;;;;;;0.40;0.40;;;;;;;9.64;100.00;98324.63;5111524;28;20239;-59
2023/03/10 02:19:00;;;;;;;0.40;0.40;;;;;;;9.63;100.00;98326.38;5111639;28;20635;-59
2023/03/10 02:21:39;;;;;;;0.60;0.60;;;;;;;9.60;100.00;98321.53;5111855;28;20208;-64
2023/03/10 02:24:12;;;;;;;0.93;0.40;;;;;;;9.63;100.00;98321.28;5111593;28;20221;-64
2023/03/10 02:26:47;;;;;;;0.67;0.67;;;;;;;9.75;100.00;98333.06;5111730;27;20200;-64
2023/03/10 02:29:22;;;;;;;0.97;0.77;;;;;;;9.73;100.00;98326.44;5111636;28;20661;-64
2023/03/10 02:31:51;;;;;;;0.43;0.43;;;;;;;9.72;100.00;98330.75;5111553;28;20649;-64
2023/03/10 02:34:18;;;;;;;0.73;0.60;;;;;;;9.71;100.00;98331.66;5111715;28;20212;-64
2023/03/10 02:36:45;;;;;;;2.33;0.60;;;;;;;9.72;100.00;98330.75;5111480;28;20233;-59
2023/03/10 02:39:12;;;;;;;0.50;0.50;;;;;;;9.70;100.00;98322.41;5111484;28;20215;-63
2023/03/10 02:41:40;;;;;;;0.63;0.40;;;;;;;9.79;100.00;98320.84;5111513;28;20368;-64
2023/03/10 02:44:09;;;;;;;0.43;0.43;;;;;;;9.77;100.00;98329.56;5111126;28;20224;-59
2023/03/10 02:46:38;;;;;;;0.50;0.50;;;;;;;9.71;100.00;98326.56;5111117;28;20212;-59
2023/03/10 02:49:07;;;;;;;0.70;0.70;;;;;;;9.67;100.00;98332.84;5111233;28;20217;-63
2023/03/10 02:51:36;;;;;;;0.60;0.50;;;;;;;9.63;100.00;98331.50;5110866;28;20201;-63
2023/03/10 02:54:03;;;;;;;1.00;0.43;;;;;;;9.62;100.00;98329.84;5110900;28;20221;-59
2023/03/10 02:56:31;;;;;;;0.50;0.30;;;;;;;9.55;100.00;98333.84;5110991;28;20254;-59
2023/03/10 02:58:58;;;;;;;0.40;0.40;;;;;;;9.63;100.00;98334.03;5111102;28;20298;-59
2023/03/10 03:01:25;;;;;;;0.30;0.30;;;;;;;9.66;100.00;98331.25;5111139;28;20219;-63
2023/03/10 03:03:53;;;;;;;0.70;0.60;;;;;;;9.69;100.00;98328.44;5110756;28;20212;-63
2023/03/10 03:06:20;;;;;;;0.77;0.60;;;;;;;9.60;100.00;98329.19;5111051;28;20201;-63
2023/03/10 03:08:47;;;;;;;0.70;0.63;;;;;;;9.67;100.00;98329.50;5110792;28;20228;-63
2023/03/10 03:11:14;;;;;;;0.53;0.53;;;;;;;9.60;100.00;98336.84;5110810;28;20204;-60
2023/03/10 03:13:41;;;;;;;0.60;0.60;;;;;;;9.55;100.00;98323.63;5110702;28;20217;-59
2023/03/10 03:16:10;;;;;;;0.70;0.53;;;;;;;9.53;100.00;98320.38;5109916;28;20240;-63
2023/03/10 03:18:37;;;;;;;2.57;0.80;;;;;;;9.54;100.00;98314.38;5110839;28;20233;-60
2023/03/10 03:21:07;;;;;;;0.53;0.53;;;;;;;9.49;100.00;98319.03;5110524;28;20743;-59
2023/03/10 03:23:34;;;;;;;1.07;0.87;;;;;;;9.48;100.00;98312.28;5110305;28;20217;-59
2023/03/10 03:26:01;;;;;;;0.30;0.30;;;;;;;9.47;100.00;98310.69;5110636;28;20201;-59
2023/03/10 03:28:28;;;;;;;0.53;0.40;;;;;;;9.48;100.00;98302.91;5110638;28;20501;-63
2023/03/10 03:30:55;;;;;;;0.30;0.30;;;;;;;9.47;100.00;98296.16;5110078;28;20202;-63
2023/03/10 03:33:22;;;;;;;1.30;0.70;;;;;;;9.49;100.00;98293.50;5110504;28;20217;-63
2023/03/10 03:35:49;;;;;;;0.97;0.50;;;;;;;9.46;100.00;98296.31;5110155;28;20235;-63
2023/03/10 03:38:17;;;;;;;0.60;0.60;;;;;;;9.50;100.00;98290.81;5110288;28;20231;-63
2023/03/10 03:40:44;;;;;;;0.40;0.40;;;;;;;9.57;100.00;98292.88;5110116;28;20201;-63
2023/03/10 03:43:12;;;;;;;0.43;0.40;;;;;;;9.53;100.00;98294.88;5109944;28;20647;-63
2023/03/10 03:45:39;;;;;;;0.80;0.80;;;;;;;9.55;100.00;98293.00;5110183;28;20204;-63
2023/03/10 03:48:06;;;;;;;0.77;0.77;;;;;;;9.58;100.00;98292.75;5109941;28;20237;-63
2023/03/10 03:50:33;;;;;;;1.17;0.90;;;;;;;9.56;100.00;98298.91;5110070;28;20212;-59
2023/03/10 03:53:00;;;;;;;0.47;0.47;;;;;;;9.52;100.00;98303.47;5109864;28;20221;-59
2023/03/10 03:55:28;;;;;;;0.43;0.43;;;;;;;9.56;100.00;98315.03;5109989;28;20196;-59
2023/03/10 03:57:55;;;;;;;0.40;0.40;;;;;;;9.60;100.00;98321.53;5109704;28;20233;-59
2023/03/10 04:00:24;;;;;;;0.73;0.57;;;;;;;9.61;100.00;98323.16;5110218;28;20201;-63
2023/03/10 04:02:52;;;;;;;0.57;0.57;;;;;;;9.64;100.00;98316.97;5110003;28;20228;-63
2023/03/10 04:05:19;;;;;;;0.57;0.40;;;;;;;9.75;100.00;98325.41;5109807;28;20254;-59
2023/03/10 04:07:47;;;;;;;0.50;0.50;;;;;;;9.79;100.00;98320.03;5109667;28;20224;-59
2023/03/10 04:10:17;;;;;;;1.30;0.80;;;;;;;9.84;100.00;98323.84;5109813;28;20274;-63
2023/03/10 04:12:45;;;;;;;0.47;0.47;;;;;;;9.82;100.00;98320.59;5109675;28;20213;-63
2023/03/10 04:15:12;;;;;;;0.63;0.47;;;;;;;9.83;100.00;98319.69;5110140;28;20198;-63
2023/03/10 04:17:39;;;;;;;0.73;0.73;;;;;;;9.90;100.00;98314.88;5109454;28;20240;-63
2023/03/10 04:20:08;;;;;;;0.80;0.60;;;;;;;9.91;100.00;98313.94;5109812;28;20205;-63
2023/03/10 04:22:35;;;;;;;0.53;0.53;;;;;;;9.86;100.00;98326.25;5109945;28;20219;-63
2023/03/10 04:25:02;;;;;;;1.67;0.80;;;;;;;9.83;100.00;98332.44;5109615;28;20197;-60
2023/03/10 04:27:29;;;;;;;0.50;0.50;;;;;;;9.79;100.00;98330.25;5111613;28;20251;-63
2023/03/10 04:29:57;;;;;;;0.57;0.57;;;;;;;9.75;100.00;98327.94;5113819;28;20208;-63
2023/03/10 04:32:24;;;;;;;0.40;0.40;;;;;;;9.77;100.00;98332.09;5113548;28;20209;-59
2023/03/10 04:34:52;;;;;;;0.70;0.70;;;;;;;9.69;100.00;98331.00;5113779;28;20196;-63
2023/03/10 04:37:20;;;;;;;0.60;0.57;;;;;;;9.82;100.00;98335.91;5113355;28;20705;-63
2023/03/10 04:39:47;;;;;;;0.57;0.57;;;;;;;9.81;100.00;98333.50;5113879;28;20197;-59
2023/03/10 04:42:14;;;;;;;0.50;0.50;;;;;;;9.83;100.00;98326.50;5113876;28;20586;-59
2023/03/10 04:44:41;;;;;;;0.80;0.80;;;;;;;9.90;100.00;98332.75;5113733;28;20201;-59
2023/03/10 04:47:09;;;;;;;1.17;0.50;;;;;;;9.95;100.00;98335.75;5113708;28;20252;-63
2023/03/10 04:49:37;;;;;;;0.83;0.70;;;;;;;9.78;100.00;98334.56;5113483;28;20204;-63
2023/03/10 04:52:04;;;;;;;0.50;0.50;;;;;;;9.96;100.00;98337.34;5113494;28;20622;-59
2023/03/10 04:54:31;;;;;;;2.50;0.70;;;;;;;9.96;100.00;98337.34;5113935;28;20201;-59
2023/03/10 04:56:58;;;;;;;0.47;0.47;;;;;;;9.97;100.00;98339.75;5113074;28;20225;-59
2023/03/10 04:59:24;;;;;;;0.50;0.50;;;;;;;9.98;100.00;98333.72;5113460;28;20193;-59
2023/03/10 05:01:52;;;;;;;1.63;1.00;;;;;;;10.01;100.00;98324.22;5113371;28;20532;-63
2023/03/10 05:04:22;;;;;;;1.90;1.00;;;;;;;9.85;100.00;98327.19;5113139;28;20206;-63
2023/03/10 05:06:50;;;;;;;5.17;2.50;;;;;;;9.85;100.00;98324.63;5112869;28;20208;-63
2023/03/10 05:09:17;;;;;;;2.63;2.33;;;;;;;9.88;100.00;98324.38;5113115;28;20211;-63
2023/03/10 05:11:44;;;;;;;3.27;1.53;;;;;;;9.93;100.00;98317.16;5112927;28;20208;-63
2023/03/10 05:14:11;;;;;;;2.20;1.73;;;;;;;9.96;100.00;98322.03;5113239;28;20204;-63
2023/03/10 05:16:38;;;;;;;2.93;1.40;;;;;;;10.11;100.00;98325.06;5113044;28;20267;-63
2023/03/10 05:19:05;;;;;;;2.67;2.00;;;;;;;10.00;100.00;98336.16;5113003;28;20741;-59
2023/03/10 05:21:33;;;;;;;1.77;1.27;;;;;;;9.88;100.00;98319.28;5113016;28;20201;-59
2023/03/10 05:24:01;;;;;;;0.73;0.67;;;;;;;10.07;100.00;98324.50;5112901;28;20225;-59
2023/03/10 05:26:28;;;;;;;0.97;0.60;;;;;;;10.35;100.00;98322.25;5112836;28;20208;-59
2023/03/10 05:28:54;;;;;;;1.10;1.00;;;;;;;10.60;100.00;98326.91;5112815;28;20209;-59
2023/03/10 05:31:24;;;;;;;1.30;1.03;;;;;;;10.67;100.00;98329.75;5112831;28;20197;-59
2023/03/10 05:33:52;;;;;;;1.77;1.47;;;;;;;10.95;100.00;98325.66;5112648;28;20275;-59
2023/03/10 05:36:19;;;;;;;2.87;1.87;;;;;;;11.31;100.00;98331.06;5112983;27;20561;-59
2023/03/10 05:38:47;;;;;;;1.07;1.00;;;;;;;11.52;100.00;98326.66;5111627;28;20224;-63
2023/03/10 05:41:14;;;;;;;2.93;1.93;;;;;;;11.67;100.00;98331.38;5112370;28;20201;-63
2023/03/10 05:43:41;;;;;;;3.60;1.97;;;;;;;11.91;100.00;98329.19;5112575;28;20225;-59
2023/03/10 05:46:08;;;;;;;3.00;1.20;;;;;;;12.13;100.00;98337.50;5112295;28;20205;-59
2023/03/10 05:48:35;;;;;;;1.87;1.37;;;;;;;12.38;100.00;98334.31;5112286;28;20217;-63
2023/03/10 05:51:05;;;;;;;3.40;1.50;;;;;;;12.73;100.00;98345.63;5112230;28;20197;-63
2023/03/10 05:53:33;;;;;;;1.37;1.03;;;;;;;12.94;100.00;98347.94;5112301;28;20220;-64
2023/03/10 05:56:05;;;;;;;2.00;1.70;;;;;;;13.08;100.00;98351.78;5112238;28;20212;-63
2023/03/10 05:58:32;;;;;;;2.27;1.80;;;;;;;13.34;100.00;98339.88;5111982;28;20240;-63
2023/03/10 06:00:59;;;;;;;4.43;2.97;;;;;;;13.62;100.00;98346.72;5112347;28;20204;-64
2023/03/10 06:03:27;;;;;;;2.50;1.67;;;;;;;13.70;100.00;98350.16;5111941;28;20602;-60
2023/03/10 06:05:54;;;;;;;1.80;1.30;;;;;;;13.78;100.00;98349.41;5112008;28;20223;-61
2023/03/10 06:08:22;;;;;;;2.60;1.40;;;;;;;13.79;100.00;98346.69;5111889;28;20222;-64
2023/03/10 06:10:49;;;;;;;1.53;1.10;;;;;;;13.74;100.00;98351.47;5112137;28;20257;-65
2023/03/10 06:13:19;;;;;;;1.30;1.10;;;;;;;13.59;100.00;98350.38;5111755;28;20710;-61
2023/03/10 06:15:49;;;;;;;1.13;1.03;;;;;;;13.62;100.00;98344.94;5111885;27;20541;-60
2023/03/10 06:18:16;;;;;;;1.53;1.30;;;;;;;13.96;100.00;98345.03;5111750;28;20227;-64
2023/03/10 06:20:43;;;;;;;1.93;1.37;;;;;;;14.23;100.00;98351.78;5111699;27;20203;-64
2023/03/10 06:23:10;;;;;;;2.27;1.83;;;;;;;14.26;100.00;98346.34;5111530;28;20221;-60
2023/03/10 06:25:39;;;;;;;2.07;1.60;;;;;;;14.05;100.00;98348.47;5111608;28;20209;-60
2023/03/10 06:28:05;;;;;;;1.20;0.93;;;;;;;14.18;100.00;98345.50;5111467;28;20725;-60
2023/03/10 06:30:34;;;;;;;0.80;0.80;;;;;;;14.35;100.00;98338.69;5111534;28;20198;-65
2023/03/10 06:33:01;;;;;;;0.93;0.87;;;;;;;14.47;100.00;98338.25;5111196;28;20642;-64
2023/03/10 06:35:29;;;;;;;0.50;0.50;;;;;;;14.68;100.00;98330.16;5111638;28;20204;-64
2023/03/10 06:37:55;;;;;;;0.80;0.80;;;;;;;14.78;100.00;98330.03;5111684;28;20236;-64
2023/03/10 06:40:22;;;;;;;0.57;0.57;;;;;;;14.93;100.00;98332.81;5111621;28;20205;-64
2023/03/10 06:42:49;;;;;;;2.00;1.27;;;;;;;15.07;100.00;98334.78;5111423;28;20524;-60
2023/03/10 06:45:17;;;;;;;1.20;1.10;;;;;;;15.25;100.00;98331.28;5111203;28;20201;-60
2023/03/10 06:47:45;;;;;;;1.93;1.10;;;;;;;15.24;100.00;98334.81;5111413;28;20213;-60
2023/03/10 06:50:13;;;;;;;1.43;0.70;;;;;;;15.32;100.00;98337.38;5110205;28;20202;-64
2023/03/10 06:52:41;;;;;;;1.00;0.90;;;;;;;15.12;100.00;98332.53;5111455;28;20232;-64
2023/03/10 06:55:09;;;;;;;1.00;0.90;;;;;;;14.99;100.00;98332.19;5111440;28;20194;-64
2023/03/10 06:57:36;;;;;;;0.87;0.77;;;;;;;14.93;100.00;98335.41;5110828;28;20717;-64
2023/03/10 07:00:09;;;;;;;0.73;0.70;;;;;;;14.99;100.00;98334.75;5110946;28;20590;-64
2023/03/10 07:02:36;;;;;;;1.10;0.90;;;;;;;14.85;100.00;98330.22;5111113;28;20241;-64
2023/03/10 07:05:05;;;;;;;1.17;1.07;;;;;;;14.86;100.00;98324.09;5111072;28;20193;-64
2023/03/10 07:07:32;;;;;;;3.07;1.77;;;;;;;14.66;100.00;98326.13;5110666;28;20222;-64
2023/03/10 07:09:59;;;;;;;1.90;1.37;;;;;;;14.51;100.00;98333.59;5110698;28;20199;-64
2023/03/10 07:12:26;;;;;;;1.37;1.00;;;;;;;14.73;100.00;98332.28;5111089;28;20217;-60
2023/03/10 07:14:52;;;;;;;1.10;1.00;;;;;;;14.73;100.00;98331.47;5110727;28;20665;-60
2023/03/10 07:17:19;;;;;;;0.80;0.70;;;;;;;14.71;100.00;98327.28;5110864;28;20719;-60
2023/03/10 07:19:46;;;;;;;1.40;1.10;;;;;;;14.89;100.00;98323.78;5111129;28;20691;-60
2023/03/10 07:22:14;;;;;;;1.10;1.00;;;;;;;14.93;100.00;98307.09;5110713;28;20805;-64
2023/03/10 07:24:41;;;;;;;1.10;1.00;;;;;;;14.95;100.00;98315.44;5110806;28;20209;-64
2023/03/10 07:27:09;;;;;;;0.87;0.70;;;;;;;14.82;100.00;98309.94;5110880;28;20230;-60
2023/03/10 07:29:36;;;;;;;0.77;0.77;;;;;;;15.02;100.00;98300.97;5110568;28;20262;-60
2023/03/10 07:32:03;;;;;;;1.90;1.17;;;;;;;15.13;100.00;98299.88;5109970;28;20197;-60
2023/03/10 07:34:30;;;;;;;0.80;0.77;;;;;;;15.17;100.00;98294.25;5110443;28;20208;-64
2023/03/10 07:36:56;;;;;;;1.03;0.83;;;;;;;15.28;100.00;98292.31;5109965;28;20288;-64
2023/03/10 07:39:25;;;;;;;0.80;0.80;;;;;;;15.20;100.00;98293.13;5110337;28;20193;-64
2023/03/10 07:41:51;;;;;;;0.73;0.70;;;;;;;15.46;100.00;98292.97;5110358;28;20196;-64
2023/03/10 07:44:18;;;;;;;1.37;0.97;;;;;;;15.96;97.93;98289.38;5110627;28;20194;-64
2023/03/10 07:46:45;;;;;;;1.27;1.17;;;;;;;16.39;95.64;98284.75;5110072;28;20204;-64
2023/03/10 07:49:12;;;;;;;1.03;0.90;;;;;;;16.69;95.70;98280.56;5110378;28;20194;-64
2023/03/10 07:51:39;;;;;;;1.47;1.07;;;;;;;17.07;86.80;98275.53;5110458;28;20201;-64
2023/03/10 07:54:06;;;;;;;1.27;1.17;;;;;;;17.18;85.08;98266.56;5110038;28;20222;-64
2023/03/10 07:56:34;;;;;;;1.63;1.27;;;;;;;17.54;86.63;98263.38;5110388;28;20584;-64
2023/03/10 07:59:01;;;;;;;1.63;1.33;;;;;;;17.67;84.27;98263.56;5109656;28;20837;-60
2023/03/10 08:01:28;;;;;;;1.33;1.03;;;;;;;18.29;90.45;98252.91;5109464;28;20198;-60
2023/03/10 08:03:54;;;;;;;1.40;1.30;;;;;;;18.53;86.72;98263.94;5110232;28;20213;-60
2023/03/10 08:06:23;;;;;;;1.23;1.00;;;;;;;19.01;82.73;98251.31;5110267;28;20326;-64
2023/03/10 08:08:50;;;;;;;1.30;1.03;;;;;;;19.13;74.05;98260.19;5109856;28;20234;-60
2023/03/10 08:11:18;;;;;;;1.00;0.80;;;;;;;19.30;79.51;98259.94;5109834;28;20261;-60
2023/03/10 08:13:47;;;;;;;0.80;0.80;;;;;;;19.67;78.79;98262.25;5109847;28;20242;-61
2023/03/10 08:16:14;;;;;;;1.20;1.10;;;;;;;19.40;75.41;98265.59;5109737;28;20203;-60
2023/03/10 08:18:42;;;;;;;1.13;0.93;;;;;;;19.36;77.00;98261.78;5109485;28;20305;-60
2023/03/10 08:21:09;;;;;;;0.83;0.83;;;;;;;19.22;80.61;98264.25;5109866;28;20211;-60
2023/03/10 08:23:37;;;;;;;1.00;0.87;;;;;;;19.76;81.57;98255.13;5109804;28;20209;-60
2023/03/10 08:26:06;;;;;;;1.77;1.10;;;;;;;20.27;78.49;98256.56;5109736;28;20203;-65
2023/03/10 08:28:36;;;;;;;1.37;0.90;;;;;;;20.72;78.64;98259.56;5109550;28;20219;-65
2023/03/10 08:31:09;;;;;;;1.17;1.00;;;;;;;20.84;73.20;98267.59;5109901;28;20196;-65
2023/03/10 08:33:37;;;;;;;1.30;1.13;;;;;;;21.12;70.92;98259.63;5109746;28;20243;-65
2023/03/10 08:36:06;;;;;;;1.10;0.97;;;;;;;21.09;76.44;98258.25;5109727;28;20197;-64
2023/03/10 08:38:33;;;;;;;1.00;0.80;;;;;;;21.54;73.20;98253.25;5109351;28;20228;-65
2023/03/10 08:41:08;;;;;;;2.00;1.40;;;;;;;20.83;75.74;98251.19;5109537;28;20198;-65
2023/03/10 08:43:35;;;;;;;1.27;1.10;;;;;;;20.40;76.17;98254.03;5109588;28;20221;-65
2023/03/10 08:46:02;;;;;;;0.90;0.80;;;;;;;19.51;79.78;98251.31;5109372;28;20194;-64
2023/03/10 08:48:30;;;;;;;1.07;0.97;;;;;;;19.80;85.16;98247.75;5109451;28;20611;-65
2023/03/10 08:50:57;;;;;;;1.27;1.17;;;;;;;19.82;74.21;98249.16;5109767;28;20199;-65
2023/03/10 08:53:24;;;;;;;0.80;0.80;;;;;;;19.36;74.06;98249.63;5109502;28;20218;-66
2023/03/10 08:55:51;;;;;;;1.27;1.10;;;;;;;20.42;74.33;98231.28;5109479;28;20244;-65
2023/03/10 08:58:18;;;;;;;1.10;0.90;;;;;;;20.42;71.10;98236.47;5109515;28;20233;-65
2023/03/10 09:00:45;;;;;;;0.93;0.90;;;;;;;20.35;73.91;98227.84;5109560;28;20584;-65
2023/03/10 09:03:13;;;;;;;1.23;1.00;;;;;;;19.92;70.37;98228.06;5109477;28;20258;-66
2023/03/10 09:05:41;;;;;;;1.20;1.10;;;;;;;20.07;74.21;98226.16;5109383;28;20195;-65
2023/03/10 09:08:08;;;;;;;1.20;1.10;;;;;;;19.80;74.20;98219.22;5109476;28;20219;-65
2023/03/10 09:10:35;;;;;;;0.80;0.80;;;;;;;20.09;71.28;98224.16;5109276;28;20203;-65
2023/03/10 09:13:02;;;;;;;3.47;0.90;;;;;;;20.07;70.75;98215.78;5109238;28;20220;-65
2023/03/10 09:15:29;;;;;;;0.93;0.90;;;;;;;20.12;72.86;98223.75;5112805;28;20194;-65
2023/03/10 09:17:56;;;;;;;1.23;1.10;;;;;;;19.41;73.30;98213.56;5112758;28;20291;-65
2023/03/10 09:20:24;;;;;;;1.80;0.93;;;;;;;18.95;71.12;98210.59;5112874;28;20580;-65
2023/03/10 09:22:53;;;;;;;1.30;0.90;;;;;;;19.09;73.16;98204.56;5113049;28;20216;-60
2023/03/10 09:25:20;;;;;;;1.20;0.93;;;;;;;18.88;73.43;98194.19;5113119;28;20276;-61
2023/03/10 09:27:47;;;;;;;1.83;1.13;;;;;;;19.26;74.20;98193.91;5112797;28;20224;-60
2023/03/10 09:30:15;;;;;;;1.00;0.90;;;;;;;19.16;74.55;98192.44;5112758;28;20242;-61
2023/03/10 09:32:44;;;;;;;1.17;1.00;;;;;;;19.15;76.34;98187.47;5112804;28;20308;-61
2023/03/10 09:35:12;;;;;;;1.20;1.10;;;;;;;19.44;77.92;98178.69;5112936;28;20198;-60
2023/03/10 09:37:38;;;;;;;3.70;1.30;;;;;;;19.10;73.46;98172.47;5112788;28;20739;-61
2023/03/10 09:40:13;;;;;;;1.30;0.93;;;;;;;19.01;77.17;98173.59;5112611;28;20204;-65
2023/03/10 09:42:43;;;;;;;1.10;1.00;;;;;;;19.19;72.65;98176.50;5112564;28;20446;-65
2023/03/10 09:45:24;;;;;;;1.20;1.10;;;;;;;18.54;72.06;98173.16;5112532;28;20616;-65
2023/03/10 09:48:11;;;;;;;3.13;1.03;;;;;;;18.54;74.67;98167.16;5112293;28;20223;-65
2023/03/10 09:50:42;;;;;;;1.70;1.00;;;;;;;19.22;75.00;98159.78;5112421;28;20199;-61
2023/03/10 09:53:25;;;;;;;1.17;1.00;;;;;;;18.87;77.03;98156.34;5112321;28;20223;-61
2023/03/10 09:55:53;;;;;;;1.03;0.93;;;;;;;18.73;73.48;98156.25;5112337;28;20216;-60
2023/03/10 09:58:30;;;;;;;2.53;1.50;;;;;;;18.54;75.14;98146.47;5112122;28;20227;-60
2023/03/10 10:00:58;;;;;;;1.50;0.90;;;;;;;18.78;76.70;98146.09;5112098;28;20197;-61
2023/03/10 10:03:31;;;;;;;1.33;0.87;;;;;;;18.71;76.81;98142.63;5112161;28;20314;-60
2023/03/10 10:06:00;;;;;;;1.17;0.90;;;;;;;19.16;74.61;98140.63;5112210;27;20283;-60
2023/03/10 10:08:29;;;;;;;1.10;0.90;;;;;;;19.23;72.85;98141.47;5111973;28;20218;-65
2023/03/10 10:11:00;;;;;;;1.50;0.97;;;;;;;19.33;72.90;98135.16;5112303;28;20210;-61
2023/03/10 10:13:29;;;;;;;0.90;0.73;;;;;;;18.55;75.38;98130.72;5111963;27;20216;-60
2023/03/10 10:16:00;;;;;;;0.90;0.80;;;;;;;18.48;76.65;98132.47;5112070;28;20202;-61
2023/03/10 10:18:38;;;;;;;1.33;0.90;;;;;;;18.92;75.56;98128.09;5111886;28;20674;-61
2023/03/10 10:21:10;;;;;;;0.90;0.90;;;;;;;18.78;74.77;98130.56;5112105;28;20199;-65
2023/03/10 10:23:41;;;;;;;1.10;1.00;;;;;;;18.83;72.77;98129.22;5111925;28;20233;-65
2023/03/10 10:26:14;;;;;;;2.93;0.80;;;;;;;19.62;70.99;98129.72;5111517;28;20607;-65
2023/03/10 10:28:44;;;;;;;1.03;0.90;;;;;;;18.91;72.48;98126.50;5111681;27;20695;-65
2023/03/10 10:31:16;;;;;;;1.10;0.80;;;;;;;18.41;73.70;98130.78;5111917;28;20201;-61
2023/03/10 10:33:55;;;;;;;1.33;0.97;;;;;;;18.65;71.65;98124.47;5111480;28;20216;-61
2023/03/10 10:36:23;;;;;;;0.70;0.70;;;;;;;18.59;67.36;98120.84;5111791;28;20199;-61
2023/03/10 10:38:52;;;;;;;1.00;0.90;;;;;;;19.08;68.10;98125.25;5111291;28;20224;-65
2023/03/10 10:41:25;;;;;;;1.10;1.00;;;;;;;18.82;67.87;98107.72;5111515;28;20201;-65
2023/03/10 10:43:52;;;;;;;1.57;0.90;;;;;;;18.80;73.77;98101.13;5111583;28;20222;-65
2023/03/10 10:46:25;;;;;;;1.37;1.00;;;;;;;19.02;70.72;98101.84;5111415;28;20662;-65
2023/03/10 10:49:02;;;;;;;0.77;0.77;;;;;;;19.40;67.38;98107.47;5111662;28;20290;-64
2023/03/10 10:51:31;;;;;;;0.93;0.80;;;;;;;19.20;67.91;98100.41;5111210;28;20271;-65
2023/03/10 10:53:59;;;;;;;0.80;0.80;;;;;;;18.86;67.31;98092.59;5111007;27;20245;-65
2023/03/10 10:56:29;;;;;;;1.30;0.97;;;;;;;18.76;65.73;98092.91;5111446;28;20200;-65
2023/03/10 10:59:06;;;;;;;1.30;1.07;;;;;;;19.11;67.97;98091.19;5110725;28;20229;-65
2023/03/10 11:01:51;;;;;;;1.17;0.90;;;;;;;19.41;63.07;98080.56;5110923;28;20214;-65
2023/03/10 11:04:18;;;;;;;0.87;0.77;;;;;;;18.92;66.52;98068.53;5111030;28;20204;-61
2023/03/10 11:06:45;;;;;;;0.90;0.90;;;;;;;18.83;67.98;98072.25;5111261;28;20628;-61
2023/03/10 11:09:17;;;;;;;2.17;1.00;;;;;;;19.60;62.33;98058.31;5110937;28;20201;-61
2023/03/10 11:11:55;;;;;;;1.20;0.87;;;;;;;18.82;62.28;98052.50;5110901;28;20198;-60
2023/03/10 11:14:45;;;;;;;0.77;0.70;;;;;;;19.23;61.04;98050.78;5110944;28;20204;-61
2023/03/10 11:17:18;;;;;;;1.40;1.07;;;;;;;19.78;62.16;98034.44;5110717;28;20245;-61
2023/03/10 11:19:56;;;;;;;1.00;0.90;;;;;;;19.85;60.55;98025.69;5110828;28;20596;-61
2023/03/10 11:22:33;;;;;;;1.10;1.00;;;;;;;19.79;59.43;98025.69;5110792;28;20215;-61
2023/03/10 11:25:05;;;;;;;3.00;1.10;;;;;;;19.47;59.75;98027.94;5110662;28;20255;-65
2023/03/10 11:27:48;;;;;;;2.00;1.17;;;;;;;19.53;63.07;98011.63;5110327;28;20227;-65
2023/03/10 11:30:18;;;;;;;1.47;0.90;;;;;;;19.85;60.24;98009.34;5110780;28;20194;-65
2023/03/10 11:32:58;;;;;;;1.90;1.30;;;;;;;19.52;60.59;97999.66;5110387;28;20231;-66
2023/03/10 11:35:32;;;;;;;1.07;0.93;;;;;;;19.41;63.01;97992.44;5110303;28;20190;-65
2023/03/10 11:38:10;;;;;;;1.13;1.00;;;;;;;19.14;61.55;97987.16;5109761;28;20327;-65